To NAV CANADA Home Page Login to a new session Search on AWWS site Feedback and Comments Disclaimer Vers la page française équivalente Tips FAQ What's new on the site To the Forecasts and Observations / NOTAM section To "File a Flight Plan" website Publications and other links Update of the User's profile FIC Telephone Numbers My Weather Data Folder Route Weather Data Regional Weather Data Local Weather Data To the Forecasts and Observations / NOTAM section
Request Generated 01/17/2017 at 04:53:20 UTC . Weather information available at that time is displayed.

METAR/TAF

OTTAWA/MACDONALD-CARTIER INTL/ON    

METAR CYOW 170400Z 23005KT 15SM FEW220 M04/M08 A3020 RMK CI1 CI TR
SLP235=
METAR CYOW 170300Z 22007KT 15SM SKC M03/M08 A3021 RMK SLP236=
METAR CYOW 170200Z 21006KT 15SM SKC M02/M08 A3021 RMK SLP237=

TAF CYOW 170238Z 1703/1724 21006KT P6SM FEW030 SCT250
FM170800 35005KT P6SM FEW030
FM171000 05005KT P6SM FEW004 BKN240 PROB30 1710/1715 1/2SM FZFG
BKN004
FM171600 08010KT P6SM SCT010 BKN200
FM172100 08015KT 6SM -SN SCT010 OVC100 PROB30 1721/1723 6SM -SN
-PL
FM172300 08012KT 2SM -SN OVC010 PROB30 1723/1724 3SM -SN -PL
RMK NXT FCST BY 170600Z=
Your time UTC time
Weather data provided by Environment Canada and NAV CANADA